หน้าหลัก
METAR-TAF:

METAR-TAF

ท่าอากาศยาน :

ฐานทัพอากาศทางทหาร

Linköping, สวีเดน

ละติจูด: 58-24N, ลองจิจูด: 015-31E, ความสูง: 93 ม.

การสังเกตสภาพอากาศปัจจุบัน

รายงานได้ทำขึ้นเมื่อ 26 นาทีที่แล้ว ณ เวลา 00:50 UTC
ลม 3 นอตจากใต้/ตะวันตกเฉียงใต้
อุณหภูมิ 13°C
ความชื้น 94%
ความกดอากาศ 1014 hPa
ทัศนวิสัย 10 กม. หรือมากกว่า

METAR: ESCF 130050Z AUTO 20003KT 9999 NCD 13/12 Q1014

เวลา: 03:16 (01:16 UTC)

การพยากรณ์

รายงานได้ทำขึ้นเมื่อ 15 ชั่วโมงและ 8 นาทีที่แล้ว ณ เวลา 10:08 UTC
การพยากรณ์มีผลตั้งแต่วันที่ 12 ณ เวลา 10 UTC จนถึงวันที่ 12 ณ เวลา 13 UTC
ลม 7 นอตจากตะวันตก
ทัศนวิสัย 10 กม. หรือมากกว่า
มีเมฆน้อยที่ความสูง 3000 ฟุต

TAF: ESCF 121008Z 1210/1213 28007KT 9999 FEW030 RMK MIL

สังเกตการณ์สภาพอากาศและพยากรณ์อากาศของสนามบินมากกว่า 4000 แห่ง (รายงาน METAR และ TAF).

สถานีที่ดูได้จะแสดงไว้ด้วยจุดสีเหลืองและสีแดงบนแผนที่.

เลื่อนเมาส์ไปเหนือจุดเพื่อดูชื่อสถานี.

แล้วคลิกเพื่อดูสังเกตการณ์และการพยากรณ์สภาพอากาศ.

ในการเปลี่ยนแผนที่: คลิกที่ปุ่มสีเขียวที่มีกากบาทสีดำเพื่อซูมเข้า; ที่ปุ่มสีเขียวที่มีขีดเพื่อซูมออก; หรือที่ลูกศรสีเขียวเพื่อไปยังแผนที่ที่อยู่ติดกัน.


METAR-TAF: